Station: Melbourne (Olympic Park)  

  Atmospheric Gas Attenuation - ITU Rec 676-11   ----------------- dB/100km -----------------
Date Time Temp RH % AH g/m3 Dew Point Wind Direction Speed kph Gust kph Barometer mB Rainfall Since 9am 24GHz 47GHz 76GHz 122GHz 134GHz 241GHz
08/05 12:30 16.1 72 9.87 11.1 9 20 1023.4 0 22.2 27.7 44.2 116.1 113.1 390.1
08/05 12:20 15.7 72 9.63 10.7 4 9 1023.6 0 21.7 27.4 43.4 114.1 110.5 380.8
08/05 12:10 15.7 72 9.63 10.7 7 11 1023.7 0 21.7 27.4 43.5 114.1 110.5 380.8
08/05 12:00 15.6 74 9.84 11 11 20 1023.9 0 22.1 27.8 44.4 116.5 113.5 391.3
08/05 11:50 15.5 71 9.38 10.3 11 15 1023.9 0 21.2 27.1 42.5 111.7 107.4 370.1
08/05 11:40 15.4 71 9.33 10.2 7 9 1023.8 0 21.1 27.0 42.4 111.3 106.9 368.2
08/05 11:30 15.4 72 9.46 10.4 11 22 1023.5 0 21.3 27.2 42.9 112.6 108.6 374.2
08/05 11:20 15.4 73 9.59 10.6 9 11 1023.5 0 21.6 27.4 43.4 114.0 110.3 380.4
08/05 11:10 15.9 70 9.48 10.4 13 20 1023.5 0 21.3 27.1 42.7 112.1 108.2 372.8
08/05 11:00 15.5 73 9.65 10.7 11 20 1023.5 0 21.7 27.5 43.6 114.6 111.0 382.7
08/05 10:50 14.8 75 9.5 10.4 15 19 1023.6 0 21.4 27.5 43.4 113.9 110.0 379.0
08/05 10:40 15.1 73 9.42 10.3 9 15 1023.5 0 21.3 27.2 42.9 112.6 108.5 373.8
08/05 10:30 14.9 72 9.18 9.9 15 26 1023.4 0 20.8 26.9 42.0 110.3 105.5 363.4
08/05 10:20 15.9 71 9.61 10.7 9 13 1023.1 0 21.6 27.3 43.2 113.5 109.9 378.8
08/05 10:10 15.1 72 9.29 10.1 19 24 1023.1 0 21.0 27.0 42.4 111.2 106.7 367.6
08/05 10:00 15 73 9.36 10.2 9 24 1023 0 21.1 27.1 42.7 112.1 107.8 371.3
08/05 09:50 14.9 72 9.18 9.9 13 20 1023 0 20.8 26.9 42.0 110.2 105.5 363.3
08/05 09:40 15 73 9.36 10.2 13 19 1022.9 0 21.1 27.1 42.7 112.0 107.7 371.3
08/05 09:30 14.8 74 9.37 10.2 9 19 1022.8 0 21.2 27.2 42.8 112.4 108.2 372.7
08/05 09:20 14.7 76 9.57 10.5 15 24 1022.7 0 21.6 27.6 43.7 114.8 111.0 382.6
08/05 09:10 14.2 78 9.52 10.4 4 7 1022.7 0 21.5 27.6 43.8 114.9 111.0 382.6
08/05 09:00 13.9 79 9.47 10.3 9 20 1022.7 0 21.4 27.7 43.7 114.8 110.8 381.7
08/05 08:50 13.8 80 9.53 10.4 7 11 1022.7 2.8 21.6 27.8 44.0 115.6 111.7 385.1
08/05 08:40 13.6 81 9.53 10.4 9 17 1022.5 2.8 21.6 27.8 44.1 115.9 112.0 386.0
08/05 08:30 13.5 82 9.59 10.5 9 20 1022.4 2.8 21.7 28.0 44.4 116.7 113.0 389.4
08/05 08:20 13.3 83 9.59 10.5 7 9 1022.4 2.8 21.7 28.0 44.6 117.0 113.3 390.4
08/05 08:10 13.2 84 9.65 10.6 9 11 1022.4 2.8 21.9 28.2 44.9 117.9 114.3 393.8
08/05 08:00 13.1 85 9.7 10.6 9 20 1022.2 2.8 22.0 28.3 45.1 118.5 115.1 396.7
08/05 07:50 12.9 86 9.69 10.6 9 17 1022 2.8 22.0 28.3 45.2 118.7 115.2 397.2
08/05 07:40 12.9 87 9.81 10.8 11 19 1021.8 2.8 22.2 28.5 45.7 120.1 116.9 403.0
08/05 07:30 12.9 87 9.81 10.8 13 20 1021.7 2.8 22.2 28.5 45.7 120.1 116.9 402.9
08/05 07:20 12.9 85 9.58 10.4 13 17 1021.6 2.8 21.7 28.1 44.7 117.4 113.7 391.7
08/05 07:10 13 84 9.53 10.4 7 11 1021.5 2.8 21.6 28.0 44.4 116.7 112.8 388.7
08/05 07:00 13.1 83 9.47 10.3 11 20 1021.4 2.8 21.5 27.9 44.1 115.9 111.8 385.3
08/05 06:50 13.2 82 9.42 10.2 11 17 1021.3 2.8 21.4 27.7 43.9 115.1 111.0 382.3
08/05 06:40 13.2 82 9.42 10.2 7 9 1021.2 2.8 21.4 27.7 43.8 115.1 111.0 382.3
08/05 06:30 13.3 81 9.36 10.1 13 28 1021.2 2.8 21.2 27.6 43.5 114.3 110.0 378.9
08/05 06:20 13.3 81 9.36 10.1 11 20 1021.1 2.8 21.2 27.6 43.5 114.3 110.0 378.9
08/05 06:10 13.3 80 9.24 9.9 7 11 1021 2.8 21.0 27.4 43.0 113.0 108.3 373.1
08/05 06:00 13.5 80 9.36 10.1 13 35 1020.9 2.8 21.2 27.5 43.4 114.0 109.7 377.9
08/05 05:50 13.5 80 9.36 10.1 15 22 1020.8 2.8 21.2 27.5 43.4 114.0 109.7 377.8
08/05 05:40 13.4 80 9.3 10 7 9 1020.6 2.8 21.1 27.4 43.2 113.4 109.0 375.4
08/05 05:30 13.3 80 9.24 9.9 13 26 1020.5 2.8 21.0 27.4 43.0 112.9 108.3 372.9
08/05 05:20 13.5 80 9.36 10.1 17 24 1020.5 2.8 21.2 27.5 43.4 113.9 109.6 377.7
08/05 05:10 13.6 80 9.42 10.2 11 15 1020.4 2.8 21.3 27.6 43.6 114.5 110.3 380.1
08/05 05:00 13.6 80 9.42 10.2 13 30 1020.4 2.8 21.3 27.6 43.6 114.5 110.3 380.1
08/05 04:50 13.5 80 9.36 10.1 13 17 1020.3 2.8 21.2 27.5 43.4 113.9 109.6 377.7
08/05 04:40 13.6 80 9.42 10.2 11 22 1020.2 2.8 21.3 27.6 43.6 114.4 110.3 380.0
08/05 04:30 13.6 80 9.42 10.2 13 28 1020.1 2.8 21.3 27.6 43.6 114.4 110.3 380.0
08/05 04:20 13.5 80 9.36 10.1 13 28 1020.2 2.8 21.2 27.5 43.4 113.9 109.6 377.6
08/05 04:10 13.5 79 9.24 9.9 9 15 1020 2.8 21.0 27.3 42.9 112.6 108.0 371.8
08/05 04:00 13.6 79 9.3 10 15 28 1020 2.8 21.1 27.4 43.1 113.1 108.6 374.2
08/05 03:50 13.5 79 9.24 9.9 11 15 1019.9 2.8 21.0 27.3 42.9 112.5 108.0 371.8
08/05 03:40 13.4 80 9.3 10 11 15 1019.9 2.8 21.1 27.4 43.2 113.4 108.9 375.2
08/05 03:30 13.3 80 9.24 9.9 9 22 1019.9 2.8 21.0 27.4 43.0 112.8 108.2 372.8
08/05 03:20 13.2 80 9.19 9.8 6 9 1019.9 2.8 20.9 27.3 42.8 112.4 107.7 370.9
08/05 03:10 13.2 79 9.07 9.6 11 17 1019.9 2.8 20.6 27.1 42.3 111.1 106.1 365.1
08/05 03:00 13.2 79 9.07 9.6 13 37 1019.9 2.8 20.6 27.1 42.3 111.1 106.1 365.1
08/05 02:50 13.1 79 9.02 9.5 7 11 1019.9 2.8 20.5 27.0 42.2 110.7 105.5 363.2
08/05 02:40 13.1 79 9.02 9.5 11 15 1020 2.8 20.5 27.0 42.2 110.7 105.5 363.2
08/05 02:30 13.1 79 9.02 9.5 13 26 1020.1 2.8 20.5 27.1 42.2 110.7 105.5 363.3
08/05 02:20 13 79 8.96 9.4 13 24 1020 2.8 20.4 27.0 42.0 110.2 104.8 360.9
08/05 02:10 12.9 79 8.9 9.4 9 15 1020 2.8 20.3 26.9 41.8 109.7 104.2 358.5
08/05 02:00 12.8 79 8.85 9.3 13 30 1020 2.8 20.2 26.9 41.6 109.2 103.6 356.5
08/05 01:50 12.8 79 8.85 9.3 13 17 1020.1 2.8 20.2 26.9 41.6 109.3 103.6 356.6
08/05 01:40 12.7 79 8.79 9.2 7 9 1020.3 2.8 20.0 26.8 41.5 108.8 103.0 354.2
08/05 01:30 12.7 79 8.79 9.2 11 22 1020.3 2.8 20.0 26.8 41.5 108.8 103.0 354.2
08/05 01:20 12.7 79 8.79 9.2 17 22 1020.5 2.8 20.0 26.8 41.5 108.8 103.0 354.3
08/05 01:10 12.7 78 8.68 9 13 20 1020.5 2.8 19.8 26.6 41.0 107.6 101.5 349.1
08/05 01:00 12.7 78 8.68 9 13 24 1020.6 2.8 19.8 26.6 41.0 107.6 101.5 349.1
08/05 00:50 12.7 78 8.68 9 17 24 1020.6 2.8 19.8 26.6 41.0 107.6 101.5 349.1
08/05 00:40 12.6 78 8.63 8.9 9 17 1020.7 2.8 19.7 26.6 40.9 107.2 101.0 347.2
08/05 00:30 12.6 77 8.52 8.7 11 20 1020.8 2.8 19.5 26.4 40.4 106.0 99.5 342.0
08/05 00:20 12.5 77 8.47 8.6 11 15 1020.8 2.8 19.4 26.3 40.3 105.6 98.9 340.1
08/05 00:10 12.4 77 8.41 8.5 7 11 1020.9 2.8 19.2 26.3 40.1 105.1 98.3 337.8
08/05 00:00 12.3 77 8.36 8.4 6 15 1021 2.8 19.1 26.2 39.9 104.7 97.7 335.9
07/05 23:50 12.4 77 8.41 8.5 6 9 1020.9 2.8 19.2 26.3 40.1 105.1 98.3 337.8
07/05 23:40 12.2 77 8.31 8.3 9 13 1021 2.8 19.0 26.2 39.8 104.3 97.2 333.9
07/05 23:30 12.2 77 8.31 8.3 7 15 1021.2 2.8 19.0 26.2 39.8 104.3 97.2 334.0
07/05 23:20 12.1 77 8.26 8.2 7 9 1021.3 2.8 18.9 26.1 39.6 103.9 96.7 332.1
07/05 23:10 12 77 8.21 8.1 7 11 1021.7 2.8 18.8 26.1 39.5 103.5 96.2 330.3
07/05 23:00 11.9 77 8.16 8 9 15 1021.8 2.8 18.7 26.1 39.3 103.1 95.6 328.4
07/05 22:50 11.8 77 8.11 7.9 6 7 1021.8 2.8 18.6 26.0 39.2 102.7 95.1 326.4
07/05 22:40 11.8 76 8 7.7 9 11 1021.9 2.8 18.4 25.8 38.7 101.5 93.6 321.3
07/05 22:30 11.8 75 7.89 7.5 7 17 1022 2.8 18.2 25.6 38.3 100.3 92.1 316.2
07/05 22:20 11.8 75 7.89 7.5 7 9 1022.2 2.8 18.2 25.7 38.3 100.3 92.2 316.3
07/05 22:10 11.7 75 7.85 7.4 9 17 1022.3 2.8 18.1 25.6 38.2 100.0 91.7 314.8
07/05 22:00 11.7 75 7.85 7.4 7 20 1022.1 2.8 18.1 25.6 38.2 100.0 91.7 314.8
07/05 21:50 11.6 75 7.8 7.3 9 11 1022.2 2.8 18.0 25.6 38.1 99.6 91.2 312.9
07/05 21:40 11.7 74 7.74 7.2 15 19 1022.2 2.8 17.8 25.4 37.8 98.9 90.3 309.7
07/05 21:30 11.6 74 7.69 7.1 11 24 1022.3 2.8 17.7 25.4 37.6 98.5 89.7 307.8
07/05 21:20 11.6 74 7.69 7.1 9 11 1022.2 2.8 17.7 25.4 37.6 98.4 89.7 307.8
07/05 21:10 11.6 74 7.69 7.1 11 13 1022.2 2.8 17.7 25.4 37.6 98.4 89.7 307.8
07/05 21:00 11.6 74 7.69 7.1 9 15 1022.2 2.8 17.7 25.4 37.6 98.4 89.7 307.8
07/05 20:50 11.5 75 7.75 7.2 11 13 1022.3 2.8 17.9 25.5 37.9 99.2 90.7 311.0
07/05 20:40 11.4 75 7.7 7.1 11 13 1022.3 2.8 17.8 25.5 37.7 98.8 90.1 309.0
07/05 20:30 11.2 77 7.81 7.3 9 17 1022.4 2.8 18.0 25.7 38.3 100.3 91.8 315.0
07/05 20:20 11 79 7.91 7.5 11 15 1022.6 2.8 18.2 25.9 38.8 101.6 93.4 320.5
07/05 20:10 11 78 7.81 7.3 9 11 1022.8 2.8 18.0 25.8 38.4 100.6 92.1 315.9
07/05 20:00 11.6 72 7.48 6.7 13 33 1022.8 2.8 17.3 25.1 36.8 96.3 87.0 298.2

Last Refresh: 08-May-2026 12:08:00

Bureau of Meteorology